Time;durP1;ratioP1;P1;durP2;ratioP2;P2;SDS_P1;SDS_P2;PMS_P1;PMS_P2;Temp;Humidity;BMP_temperature;BMP_pressure;BME280_temperature;BME280_humidity;BME280_pressure;Samples;Min_cycle;Max_cycle;Signal;HPM_P1;HPM_P2
2021/11/20 00:02:01;;;;;;;16.33;7.53;;;11.30;99.90;;;;;;4946761;29;20185;-96
2021/11/20 00:04:28;;;;;;;11.85;6.70;;;11.20;99.90;;;;;;4945383;29;20185;-96
2021/11/20 00:06:56;;;;;;;14.55;7.32;;;11.20;99.90;;;;;;4947645;29;20196;-96
2021/11/20 00:09:24;;;;;;;13.95;7.68;;;11.20;99.90;;;;;;4961755;28;20235;-96
2021/11/20 00:11:53;;;;;;;16.85;8.52;;;11.30;99.90;;;;;;4964729;28;20276;-96
2021/11/20 00:14:24;;;;;;;16.88;7.50;;;11.30;99.90;;;;;;4953017;28;20190;-96
2021/11/20 00:16:51;;;;;;;15.32;7.10;;;11.30;99.90;;;;;;4957606;28;20320;-96
2021/11/20 00:19:18;;;;;;;17.58;8.82;;;11.30;99.90;;;;;;4966277;28;20212;-96
2021/11/20 00:21:54;;;;;;;22.77;8.60;;;11.20;99.90;;;;;;4964809;28;20193;-96
2021/11/20 00:24:25;;;;;;;12.23;7.50;;;11.10;99.90;;;;;;4966999;28;20293;-96
2021/11/20 00:26:54;;;;;;;14.70;7.75;;;11.10;99.90;;;;;;4962610;28;20185;-96
2021/11/20 00:29:25;;;;;;;11.90;8.07;;;11.20;99.90;;;;;;4964965;28;20188;-96
2021/11/20 00:31:58;;;;;;;15.07;7.40;;;11.10;99.90;;;;;;4967889;28;20228;-96
2021/11/20 00:34:30;;;;;;;14.40;8.23;;;11.10;99.90;;;;;;4964396;28;20220;-96
2021/11/20 00:36:57;;;;;;;18.60;7.45;;;11.10;99.90;;;;;;4943165;29;20185;-96
2021/11/20 00:39:27;;;;;;;17.17;7.32;;;11.20;99.90;;;;;;4944027;29;20220;-97
2021/11/20 00:41:54;;;;;;;16.92;7.45;;;11.20;99.90;;;;;;4941081;29;20261;-96
2021/11/20 00:44:20;;;;;;;13.95;7.22;;;11.20;99.90;;;;;;4933618;29;20628;-96
2021/11/20 00:46:47;;;;;;;14.88;7.00;;;11.20;99.90;;;;;;4926823;29;20190;-96
2021/11/20 00:49:14;;;;;;;12.65;7.00;;;11.30;99.90;;;;;;4927208;29;20648;-96
2021/11/20 00:51:41;;;;;;;13.30;6.88;;;11.20;99.90;;;;;;4927693;29;20276;-96
2021/11/20 00:54:07;;;;;;;17.45;7.45;;;11.20;99.90;;;;;;4928329;29;20193;-96
2021/11/20 00:56:34;;;;;;;17.90;6.53;;;11.10;99.90;;;;;;4927493;29;20185;-96
2021/11/20 00:59:00;;;;;;;13.43;6.32;;;11.10;99.90;;;;;;4924289;29;20189;-96
2021/11/20 01:01:38;;;;;;;12.07;6.30;;;11.20;99.90;;;;;;4927555;29;20200;-96
2021/11/20 01:04:08;;;;;;;14.13;6.45;;;11.10;99.90;;;;;;4944564;29;20174;-96
2021/11/20 01:06:34;;;;;;;11.65;6.00;;;11.10;99.90;;;;;;4915207;29;20194;-96
2021/11/20 01:09:04;;;;;;;13.10;5.63;;;11.10;99.90;;;;;;4928486;29;20186;-96
2021/11/20 01:11:35;;;;;;;12.90;6.30;;;11.10;99.90;;;;;;4929150;29;20182;-96
2021/11/20 01:14:04;;;;;;;13.20;5.68;;;11.10;99.90;;;;;;4936368;28;20192;-96
2021/11/20 01:16:30;;;;;;;13.27;5.57;;;11.20;99.90;;;;;;4947118;29;20201;-96
2021/11/20 01:19:00;;;;;;;11.25;5.45;;;11.10;99.90;;;;;;4946673;29;20180;-96
2021/11/20 01:21:32;;;;;;;13.82;6.32;;;11.20;99.90;;;;;;4950921;29;20272;-96
2021/11/20 01:23:59;;;;;;;10.43;5.80;;;11.10;99.90;;;;;;4934464;29;20182;-96
2021/11/20 01:26:27;;;;;;;10.40;6.55;;;11.00;99.90;;;;;;4932658;29;20178;-96
2021/11/20 01:28:55;;;;;;;18.98;6.55;;;11.00;99.90;;;;;;4933903;29;20259;-96
2021/11/20 01:31:28;;;;;;;12.15;6.40;;;11.00;99.90;;;;;;4935828;28;20217;-96
2021/11/20 01:33:55;;;;;;;10.77;6.00;;;11.00;99.90;;;;;;4972156;28;20204;-96
2021/11/20 01:36:27;;;;;;;12.30;6.05;;;10.90;99.90;;;;;;4971431;28;20252;-96
2021/11/20 01:38:55;;;;;;;15.75;7.03;;;10.90;99.90;;;;;;4971081;28;20678;-96
2021/11/20 01:41:23;;;;;;;15.98;5.93;;;10.90;99.90;;;;;;4971408;28;20636;-96
2021/11/20 01:43:54;;;;;;;12.05;6.22;;;10.90;99.90;;;;;;4973222;28;20202;-96
2021/11/20 01:46:26;;;;;;;14.02;6.50;;;10.90;99.90;;;;;;4950500;29;20220;-96
2021/11/20 01:49:22;;;;;;;10.23;5.90;;;10.90;99.90;;;;;;4934663;29;20699;-96
2021/11/20 01:52:34;;;;;;;12.43;5.88;;;10.90;99.90;;;;;;4924727;29;20225;-96
2021/11/20 01:55:25;;;;;;;10.75;5.50;;;10.90;99.90;;;;;;4941654;29;20193;-96
2021/11/20 01:57:59;;;;;;;13.60;5.82;;;10.90;99.90;;;;;;4952741;29;20189;-96
2021/11/20 02:01:07;;;;;;;10.25;5.88;;;10.90;99.90;;;;;;4950773;29;20240;-96
2021/11/20 02:03:47;;;;;;;12.45;5.57;;;10.90;99.90;;;;;;4943034;29;20216;-96
2021/11/20 02:06:28;;;;;;;12.13;6.10;;;11.00;99.90;;;;;;4952866;29;20185;-96
2021/11/20 02:09:16;;;;;;;9.80;5.78;;;10.90;99.90;;;;;;4969494;29;20177;-96
2021/11/20 02:11:47;;;;;;;13.88;6.55;;;11.00;99.90;;;;;;4949575;29;20280;-96
2021/11/20 02:14:21;;;;;;;18.42;6.57;;;10.90;99.90;;;;;;4947455;29;20182;-96
2021/11/20 02:16:52;;;;;;;16.42;6.25;;;11.00;99.90;;;;;;4961083;28;20190;-96
2021/11/20 02:19:33;;;;;;;13.30;6.97;;;10.90;99.90;;;;;;4965508;28;20216;-96
2021/11/20 02:22:29;;;;;;;15.27;7.03;;;10.90;99.90;;;;;;4965518;28;20181;-96
2021/11/20 02:24:56;;;;;;;15.57;7.63;;;10.90;99.90;;;;;;4966772;28;20204;-96
2021/11/20 02:27:23;;;;;;;9.82;6.85;;;10.90;99.90;;;;;;4983025;28;20175;-96
2021/11/20 02:29:49;;;;;;;15.20;7.57;;;10.90;99.90;;;;;;4964433;28;20189;-96
2021/11/20 02:32:20;;;;;;;14.52;8.30;;;10.90;99.90;;;;;;4965336;28;20203;-96
2021/11/20 02:34:52;;;;;;;21.42;8.80;;;10.90;99.90;;;;;;4949146;29;20193;-96
2021/11/20 02:37:21;;;;;;;14.85;7.78;;;10.90;99.90;;;;;;4947203;29;20186;-96
2021/11/20 02:39:47;;;;;;;13.40;8.27;;;10.90;99.90;;;;;;4945835;29;20236;-96
2021/11/20 02:42:21;;;;;;;15.55;8.55;;;10.80;99.90;;;;;;4943190;29;20253;-96
2021/11/20 02:44:47;;;;;;;16.40;8.55;;;10.80;99.90;;;;;;4945807;29;20200;-96
2021/11/20 02:47:28;;;;;;;14.52;7.80;;;10.80;99.90;;;;;;4946760;29;20173;-96
2021/11/20 02:49:56;;;;;;;13.95;8.55;;;10.70;99.90;;;;;;4948297;29;20185;-96
2021/11/20 02:52:22;;;;;;;18.52;8.63;;;10.70;99.90;;;;;;4945813;29;20643;-96
2021/11/20 02:55:01;;;;;;;14.77;7.57;;;10.80;99.90;;;;;;4947694;29;20213;-96
2021/11/20 02:57:33;;;;;;;14.80;8.45;;;10.80;99.90;;;;;;4931577;29;20192;-96
2021/11/20 03:00:00;;;;;;;20.77;8.40;;;10.70;99.90;;;;;;4947987;29;20304;-96
2021/11/20 03:02:28;;;;;;;13.63;8.50;;;10.70;99.90;;;;;;4965420;28;20205;-96
2021/11/20 03:04:56;;;;;;;18.98;8.65;;;10.70;99.90;;;;;;4946452;29;20340;-96
2021/11/20 03:07:22;;;;;;;14.77;8.98;;;10.70;99.90;;;;;;4948077;29;20181;-96
2021/11/20 03:09:49;;;;;;;14.98;8.88;;;10.70;99.90;;;;;;4945207;29;20192;-96
2021/11/20 03:12:16;;;;;;;13.02;8.35;;;10.70;99.90;;;;;;4949193;29;20193;-96
2021/11/20 03:14:42;;;;;;;13.32;8.50;;;10.70;99.90;;;;;;4948716;29;20221;-96
2021/11/20 03:17:10;;;;;;;14.50;8.73;;;10.70;99.90;;;;;;4949147;29;20189;-96
2021/11/20 03:19:43;;;;;;;18.90;9.38;;;10.70;99.90;;;;;;4948535;29;20216;-96
2021/11/20 03:22:19;;;;;;;20.05;9.25;;;10.60;99.90;;;;;;4947021;29;20192;-96
2021/11/20 03:24:45;;;;;;;15.38;9.30;;;10.60;99.90;;;;;;4947825;29;20199;-96
2021/11/20 03:27:11;;;;;;;14.63;8.70;;;10.60;99.90;;;;;;4948487;29;20200;-96
2021/11/20 03:29:38;;;;;;;15.13;9.20;;;10.60;99.90;;;;;;4935597;29;20205;-96
2021/11/20 03:32:07;;;;;;;15.50;8.98;;;10.60;99.90;;;;;;4936659;29;20280;-96
2021/11/20 03:34:41;;;;;;;20.30;10.15;;;10.60;99.90;;;;;;4954289;29;20578;-96
2021/11/20 03:37:08;;;;;;;18.17;9.30;;;10.60;99.90;;;;;;4949932;29;20188;-96
2021/11/20 03:39:34;;;;;;;18.77;9.73;;;10.60;99.90;;;;;;4952542;29;20213;-96
2021/11/20 03:42:02;;;;;;;18.52;9.98;;;10.60;99.90;;;;;;4953343;29;20265;-96
2021/11/20 03:44:29;;;;;;;18.75;9.85;;;10.60;99.90;;;;;;4950096;29;20580;-96
2021/11/20 03:46:55;;;;;;;20.70;10.30;;;10.60;99.90;;;;;;4952590;29;20200;-96
2021/11/20 03:49:30;;;;;;;15.77;9.82;;;10.60;99.90;;;;;;4953919;29;20185;-96
2021/11/20 03:51:57;;;;;;;19.35;10.50;;;10.60;99.90;;;;;;4937374;29;20196;-96
2021/11/20 03:54:46;;;;;;;19.23;10.30;;;10.60;99.90;;;;;;4952260;29;20185;-96
2021/11/20 03:57:12;;;;;;;18.23;9.82;;;10.60;99.90;;;;;;4952389;29;20177;-96
2021/11/20 03:59:38;;;;;;;18.63;9.95;;;10.60;99.90;;;;;;4955729;29;20214;-96
2021/11/20 04:02:05;;;;;;;16.77;9.75;;;10.60;99.90;;;;;;4951006;29;20200;-96
2021/11/20 04:04:36;;;;;;;15.18;9.32;;;10.60;99.90;;;;;;4958468;28;20177;-96
2021/11/20 04:07:02;;;;;;;14.25;9.13;;;10.60;99.90;;;;;;4972146;28;20229;-96
2021/11/20 04:09:29;;;;;;;15.32;8.85;;;10.60;99.90;;;;;;4974475;28;20188;-96
2021/11/20 04:11:55;;;;;;;15.05;8.35;;;10.60;99.90;;;;;;4972913;28;20216;-96
2021/11/20 04:14:25;;;;;;;20.73;8.30;;;10.60;99.90;;;;;;4959710;28;20280;-96
2021/11/20 04:16:53;;;;;;;16.63;8.07;;;10.60;99.90;;;;;;4934777;29;20284;-96
2021/11/20 04:19:21;;;;;;;10.90;7.15;;;10.60;99.90;;;;;;4954123;29;20248;-97
2021/11/20 04:21:48;;;;;;;17.02;8.25;;;10.60;99.90;;;;;;4955327;29;20193;-96
2021/11/20 04:24:18;;;;;;;11.02;6.72;;;10.60;99.90;;;;;;4955501;29;20181;-96
2021/11/20 04:26:45;;;;;;;15.85;7.47;;;10.70;99.90;;;;;;4968346;28;20193;-96
2021/11/20 04:29:12;;;;;;;15.77;7.45;;;10.60;99.90;;;;;;4949364;29;20189;-96
2021/11/20 04:31:39;;;;;;;13.63;6.60;;;10.70;99.90;;;;;;4948473;29;20189;-97
2021/11/20 04:34:07;;;;;;;13.23;7.05;;;10.70;99.90;;;;;;4949492;29;20198;-96
2021/11/20 04:36:33;;;;;;;16.50;6.80;;;10.70;99.90;;;;;;4935999;29;20220;-96
2021/11/20 04:39:00;;;;;;;12.07;6.80;;;10.70;99.90;;;;;;4948285;29;20189;-96
2021/11/20 04:41:29;;;;;;;15.05;6.63;;;10.70;99.90;;;;;;4947903;28;20247;-96
2021/11/20 04:43:56;;;;;;;12.38;6.75;;;10.70;99.90;;;;;;4971529;29;20196;-97
2021/11/20 04:46:26;;;;;;;12.48;6.90;;;10.70;99.90;;;;;;4950123;29;20193;-96
2021/11/20 04:48:56;;;;;;;15.82;6.82;;;10.70;99.90;;;;;;4969471;29;20197;-96
2021/11/20 04:51:23;;;;;;;14.63;7.10;;;10.70;99.90;;;;;;4937952;29;20220;-96
2021/11/20 04:53:50;;;;;;;15.55;7.35;;;10.80;99.90;;;;;;4951228;29;20217;-96
2021/11/20 04:56:20;;;;;;;13.35;6.63;;;10.80;99.90;;;;;;4951682;29;20241;-96
2021/11/20 04:58:54;;;;;;;11.07;6.20;;;10.80;99.90;;;;;;4949116;29;20197;-96
2021/11/20 05:01:22;;;;;;;13.43;6.75;;;10.70;99.90;;;;;;4949479;29;20197;-96
2021/11/20 05:03:51;;;;;;;12.82;6.95;;;10.80;99.90;;;;;;4949913;29;20189;-96
2021/11/20 05:06:19;;;;;;;12.13;6.03;;;10.80;99.90;;;;;;4949409;29;20193;-96
2021/11/20 05:08:48;;;;;;;13.77;6.35;;;10.80;99.90;;;;;;4948882;29;20554;-96
2021/11/20 05:11:15;;;;;;;11.30;5.80;;;10.70;99.90;;;;;;4949549;29;20185;-96
2021/11/20 05:13:42;;;;;;;11.65;5.45;;;10.80;99.90;;;;;;4949044;29;20282;-96
2021/11/20 05:16:11;;;;;;;10.32;5.32;;;10.80;99.90;;;;;;4934389;29;20193;-96
2021/11/20 05:18:38;;;;;;;18.48;5.75;;;10.80;99.90;;;;;;4948577;29;20193;-96
2021/11/20 05:21:06;;;;;;;9.13;5.05;;;11.00;99.90;;;;;;4949961;29;20228;-96
2021/11/20 05:23:34;;;;;;;13.07;5.93;;;10.90;99.90;;;;;;4950285;29;20185;-96
2021/11/20 05:26:00;;;;;;;12.88;5.93;;;10.80;99.90;;;;;;4946885;29;20200;-96
2021/11/20 05:28:27;;;;;;;10.32;5.90;;;10.90;99.90;;;;;;4948480;29;20675;-96
2021/11/20 05:30:53;;;;;;;13.50;5.95;;;10.90;99.90;;;;;;4948752;29;20209;-96
2021/11/20 05:33:32;;;;;;;11.30;5.13;;;10.80;99.90;;;;;;4946350;29;20185;-96
2021/11/20 05:36:01;;;;;;;8.60;5.32;;;10.80;99.90;;;;;;4948720;29;20620;-96
2021/11/20 05:38:27;;;;;;;9.98;4.95;;;10.80;99.90;;;;;;4949891;29;20189;-96
2021/11/20 05:40:54;;;;;;;9.88;5.25;;;10.80;99.90;;;;;;4949105;29;20256;-96
2021/11/20 05:43:22;;;;;;;11.07;6.13;;;10.80;99.90;;;;;;4948862;29;20221;-96
2021/11/20 05:46:08;;;;;;;10.05;5.72;;;10.80;99.90;;;;;;4946825;29;20212;-96
2021/11/20 05:48:35;;;;;;;11.50;5.93;;;10.80;99.90;;;;;;4957999;28;20181;-96
2021/11/20 05:51:01;;;;;;;10.75;5.95;;;10.80;99.90;;;;;;4952682;28;20208;-96
2021/11/20 05:53:28;;;;;;;11.48;6.65;;;10.80;99.90;;;;;;4964884;28;20240;-96
2021/11/20 05:55:56;;;;;;;15.63;6.35;;;10.70;99.90;;;;;;4967540;28;20181;-96
2021/11/20 05:58:32;;;;;;;15.00;6.53;;;10.80;99.90;;;;;;4968092;28;20177;-96
2021/11/20 06:01:02;;;;;;;11.98;6.10;;;10.70;99.90;;;;;;4963706;28;20224;-96
2021/11/20 06:03:32;;;;;;;13.73;6.65;;;10.70;99.90;;;;;;4957239;28;20658;-97
2021/11/20 06:06:06;;;;;;;11.75;7.15;;;10.80;99.90;;;;;;4966695;28;20192;-96
2021/11/20 06:08:32;;;;;;;10.73;6.55;;;10.70;99.90;;;;;;4968758;28;20180;-96
2021/11/20 06:11:06;;;;;;;16.52;7.35;;;10.70;99.90;;;;;;4969350;28;20185;-96
2021/11/20 06:13:36;;;;;;;14.02;6.93;;;10.70;99.90;;;;;;5014111;23;20326;-96
2021/11/20 06:16:03;;;;;;;11.95;6.47;;;10.70;99.90;;;;;;4952813;28;20197;-96
2021/11/20 06:18:30;;;;;;;12.43;6.80;;;10.70;99.90;;;;;;4946017;29;20185;-96
2021/11/20 06:20:56;;;;;;;13.77;6.70;;;10.80;99.90;;;;;;4948194;29;20557;-96
2021/11/20 06:23:25;;;;;;;11.93;7.25;;;10.80;99.90;;;;;;4947966;29;20212;-96
2021/11/20 06:25:51;;;;;;;13.27;7.28;;;10.80;99.90;;;;;;4950656;29;20198;-96
2021/11/20 06:28:17;;;;;;;10.93;6.97;;;10.70;99.90;;;;;;4949423;29;20231;-96
2021/11/20 06:30:43;;;;;;;12.57;6.43;;;10.70;99.90;;;;;;4954838;28;21368;-96
2021/11/20 06:33:09;;;;;;;13.30;7.20;;;10.70;99.90;;;;;;4946432;29;20201;-96
2021/11/20 06:35:36;;;;;;;15.30;7.25;;;10.70;99.90;;;;;;4946729;28;20553;-96
2021/11/20 06:38:04;;;;;;;13.15;6.60;;;10.70;99.90;;;;;;4948697;29;20272;-96
2021/11/20 06:40:36;;;;;;;10.43;6.20;;;10.70;99.90;;;;;;4949124;29;20209;-96
2021/11/20 06:43:03;;;;;;;8.07;5.65;;;10.70;99.90;;;;;;4948344;28;20184;-96
2021/11/20 06:45:38;;;;;;;10.80;6.30;;;10.70;99.90;;;;;;4964756;28;20192;-96
2021/11/20 06:48:05;;;;;;;13.38;5.95;;;10.70;99.90;;;;;;4959960;28;20206;-96
2021/11/20 06:50:34;;;;;;;12.77;5.47;;;10.70;99.90;;;;;;4966190;28;20220;-96
2021/11/20 06:53:06;;;;;;;10.70;5.72;;;10.70;99.90;;;;;;4967633;28;20173;-96
2021/11/20 06:55:35;;;;;;;9.93;6.30;;;10.70;99.90;;;;;;4982078;28;20173;-96
2021/11/20 07:00:48;;;;;;;13.40;6.25;;;10.60;99.90;;;;;;4982421;28;20627;-96
2021/11/20 07:03:18;;;;;;;12.10;6.20;;;10.60;99.90;;;;;;4960577;28;20173;-96
2021/11/20 07:05:48;;;;;;;10.43;6.60;;;10.60;99.90;;;;;;4946675;28;20197;-96
2021/11/20 07:08:15;;;;;;;13.25;7.55;;;10.60;99.90;;;;;;4950993;28;20189;-96
2021/11/20 07:10:43;;;;;;;13.80;7.63;;;10.70;99.90;;;;;;4947524;28;20531;-96
2021/11/20 07:13:10;;;;;;;11.88;7.55;;;10.60;99.90;;;;;;4895334;28;1429561;-96
2021/11/20 07:15:36;;;;;;;12.93;8.13;;;10.60;99.90;;;;;;4950914;28;20193;-96
2021/11/20 07:18:02;;;;;;;12.50;8.02;;;10.70;99.90;;;;;;4955375;28;20280;-96
2021/11/20 07:20:36;;;;;;;12.15;9.00;;;10.60;99.90;;;;;;4949711;28;20208;-96
2021/11/20 07:23:03;;;;;;;15.23;9.27;;;10.70;99.90;;;;;;4959988;28;20192;-96
2021/11/20 07:25:31;;;;;;;16.05;10.40;;;10.70;99.90;;;;;;4962481;28;20188;-96
2021/11/20 07:27:57;;;;;;;15.80;9.98;;;10.70;99.90;;;;;;4965683;28;20212;-96
2021/11/20 07:30:26;;;;;;;16.10;10.52;;;10.70;99.90;;;;;;4964339;28;20674;-96
2021/11/20 07:32:52;;;;;;;17.73;11.32;;;10.70;99.90;;;;;;4965075;28;20585;-96
2021/11/20 07:35:28;;;;;;;16.65;11.18;;;10.70;99.90;;;;;;4965436;28;20264;-96
2021/11/20 07:38:06;;;;;;;18.55;12.63;;;10.70;99.90;;;;;;4965255;28;20572;-96
2021/11/20 07:40:35;;;;;;;19.10;12.43;;;10.70;99.90;;;;;;4962772;28;20283;-96
2021/11/20 07:43:02;;;;;;;18.10;13.82;;;10.70;99.90;;;;;;4981036;28;20244;-96
2021/11/20 07:45:28;;;;;;;19.25;13.88;;;10.70;99.90;;;;;;4961138;28;20195;-96
2021/11/20 07:47:54;;;;;;;20.55;14.50;;;10.70;99.90;;;;;;4963811;28;20196;-96
2021/11/20 07:50:21;;;;;;;19.67;14.93;;;10.70;99.90;;;;;;4961738;28;20188;-96
2021/11/20 07:52:48;;;;;;;18.40;14.40;;;10.70;99.90;;;;;;4963924;28;20191;-96
2021/11/20 07:55:16;;;;;;;20.58;14.10;;;10.70;99.90;;;;;;4964115;28;20248;-96
2021/11/20 07:57:45;;;;;;;21.80;14.05;;;10.80;99.90;;;;;;4963063;28;20565;-96
2021/11/20 08:00:19;;;;;;;18.67;14.95;;;10.80;99.90;;;;;;4959125;29;20205;-96
2021/11/20 08:02:46;;;;;;;20.63;15.18;;;10.80;99.90;;;;;;4949438;28;20181;-96
2021/11/20 08:05:12;;;;;;;24.23;15.77;;;10.80;99.90;;;;;;4962794;28;20231;-96
2021/11/20 08:07:39;;;;;;;23.20;15.65;;;10.80;99.90;;;;;;4963640;28;20615;-96
2021/11/20 08:10:09;;;;;;;24.23;15.63;;;10.80;99.90;;;;;;4970111;28;20212;-96
2021/11/20 08:12:35;;;;;;;28.08;16.58;;;10.80;99.90;;;;;;4960377;28;20236;-96
2021/11/20 08:15:03;;;;;;;24.65;15.60;;;10.80;99.90;;;;;;4964609;28;20191;-96
2021/11/20 08:17:32;;;;;;;18.33;15.10;;;10.80;99.90;;;;;;5018672;23;20229;-96
2021/11/20 08:20:31;;;;;;;24.08;16.15;;;10.80;99.90;;;;;;4962473;28;20217;-96
2021/11/20 08:23:26;;;;;;;23.10;17.17;;;10.80;99.90;;;;;;4965956;28;20197;-96
2021/11/20 08:25:58;;;;;;;22.58;17.38;;;10.80;99.90;;;;;;4967804;29;20181;-96
2021/11/20 08:28:45;;;;;;;21.58;17.85;;;10.90;99.90;;;;;;4971204;23;20268;-96
2021/11/20 08:31:16;;;;;;;21.63;17.00;;;10.90;99.90;;;;;;4952150;29;20211;-96
2021/11/20 08:33:59;;;;;;;27.67;17.98;;;10.80;99.90;;;;;;4968005;29;20197;-96
2021/11/20 08:36:33;;;;;;;23.50;18.25;;;10.90;99.90;;;;;;4952669;28;20224;-96
2021/11/20 08:39:19;;;;;;;21.85;18.05;;;10.80;99.90;;;;;;4953828;29;20181;-96
2021/11/20 08:42:17;;;;;;;;;;;;;;;;;;;;;
2021/11/20 08:45:07;;;;;;;21.90;16.95;;;10.90;99.90;;;;;;5030179;23;20309;-96
2021/11/20 08:48:08;;;;;;;22.33;18.17;;;10.90;99.90;;;;;;4957815;29;20177;-96
2021/11/20 08:50:43;;;;;;;23.08;17.88;;;10.90;99.90;;;;;;4976600;23;20236;-96
2021/11/20 08:53:09;;;;;;;22.30;18.05;;;10.90;99.90;;;;;;4935422;29;20197;-96
2021/11/20 08:55:37;;;;;;;26.17;19.25;;;10.90;99.90;;;;;;4929444;29;20209;-96
2021/11/20 08:58:14;;;;;;;24.20;18.23;;;10.90;99.90;;;;;;4939789;23;20301;-96
2021/11/20 09:00:59;;;;;;;25.13;18.70;;;10.90;99.90;;;;;;4903541;29;20225;-96
2021/11/20 09:04:00;;;;;;;23.17;19.08;;;10.90;99.90;;;;;;4950808;29;20211;-96
2021/11/20 09:06:54;;;;;;;24.55;18.67;;;10.90;99.90;;;;;;4952340;29;20189;-96
2021/11/20 09:09:50;;;;;;;25.42;20.25;;;10.90;99.90;;;;;;4949138;29;20769;-96
2021/11/20 09:12:26;;;;;;;26.80;19.60;;;10.90;99.90;;;;;;5009757;23;20203;-96
2021/11/20 09:15:03;;;;;;;25.27;19.55;;;10.90;99.90;;;;;;4961538;23;20237;-96
2021/11/20 09:20:19;;;;;;;28.30;20.13;;;10.90;99.90;;;;;;4954721;28;20232;-96
2021/11/20 09:22:45;;;;;;;28.05;20.35;;;10.90;99.90;;;;;;4927714;29;20209;-96
2021/11/20 09:25:15;;;;;;;29.25;20.67;;;10.80;99.90;;;;;;4936012;29;20272;-96
2021/11/20 09:27:45;;;;;;;30.25;20.33;;;10.80;99.90;;;;;;4932754;29;20189;-96
2021/11/20 09:30:24;;;;;;;27.10;20.65;;;10.90;99.90;;;;;;4958981;29;20185;-96
2021/11/20 09:32:51;;;;;;;27.00;19.45;;;10.90;99.90;;;;;;4941266;29;20231;-96
2021/11/20 09:35:18;;;;;;;25.13;20.88;;;10.90;99.90;;;;;;4950770;29;20189;-96
2021/11/20 09:37:44;;;;;;;26.13;20.83;;;10.90;99.90;;;;;;4949914;29;20604;-96
2021/11/20 09:40:15;;;;;;;26.90;20.13;;;10.90;99.90;;;;;;4955164;29;20217;-96
2021/11/20 09:42:58;;;;;;;27.67;19.25;;;10.90;99.90;;;;;;4955923;29;20185;-96
2021/11/20 09:45:33;;;;;;;30.75;20.70;;;10.90;99.90;;;;;;4944146;29;20178;-96
2021/11/20 09:48:35;;;;;;;27.20;19.33;;;10.90;99.90;;;;;;4956280;29;20231;-96
2021/11/20 09:51:13;;;;;;;25.13;19.10;;;10.90;99.90;;;;;;4960112;28;20252;-96
2021/11/20 09:53:43;;;;;;;26.38;19.42;;;10.90;99.90;;;;;;4959861;29;20181;-96
2021/11/20 09:56:21;;;;;;;23.27;19.10;;;11.00;99.90;;;;;;4958308;29;20197;-96
2021/11/20 09:58:55;;;;;;;22.42;18.23;;;10.90;99.90;;;;;;4945460;29;20173;-96
2021/11/20 10:06:46;;;;;;;23.80;19.35;;;10.90;99.90;;;;;;5111654;23;20251;-96
2021/11/20 10:09:45;;;;;;;23.73;18.08;;;10.90;99.90;;;;;;4955877;29;20240;-96
2021/11/20 10:12:40;;;;;;;26.98;17.88;;;10.90;99.90;;;;;;5036317;23;20239;-96
2021/11/20 10:18:03;;;;;;;24.42;17.50;;;10.90;99.90;;;;;;5047332;23;20251;-96
2021/11/20 10:21:15;;;;;;;20.02;15.57;;;10.90;99.90;;;;;;5076676;23;20242;-96
2021/11/20 10:24:28;;;;;;;20.83;16.38;;;11.00;99.90;;;;;;4946657;29;20252;-95
2021/11/20 10:27:47;;;;;;;18.77;15.52;;;11.00;99.90;;;;;;4963159;28;20261;-96
2021/11/20 10:30:52;;;;;;;18.38;14.90;;;11.00;99.90;;;;;;4956339;23;20282;-96
2021/11/20 10:33:38;;;;;;;25.77;14.18;;;11.00;99.90;;;;;;5075618;23;20281;-95
2021/11/20 10:36:18;;;;;;;17.15;14.70;;;11.00;99.90;;;;;;4978984;29;20173;-95
2021/11/20 10:41:51;;;;;;;17.08;14.27;;;11.00;99.90;;;;;;4977609;28;20227;-96
2021/11/20 10:55:59;;;;;;;14.82;12.50;;;11.10;99.90;;;;;;4975924;28;20221;-96
2021/11/20 10:58:56;;;;;;;14.68;13.02;;;11.10;99.90;;;;;;4979288;28;20161;-96
2021/11/20 11:02:01;;;;;;;17.42;12.88;;;11.10;99.90;;;;;;4993104;23;20241;-96
2021/11/20 11:04:43;;;;;;;16.50;12.05;;;11.10;99.90;;;;;;4935242;29;20200;-96
2021/11/20 11:10:26;;;;;;;14.70;11.95;;;11.10;99.90;;;;;;5167632;23;20229;-96
2021/11/20 11:13:43;;;;;;;16.45;11.77;;;11.10;99.90;;;;;;4955447;29;20189;-95
2021/11/20 11:16:55;;;;;;;15.98;11.80;;;11.10;99.90;;;;;;5047701;23;20260;-96
2021/11/20 11:20:16;;;;;;;15.07;12.15;;;11.10;99.90;;;;;;4938650;29;20179;-96
2021/11/20 11:23:37;;;;;;;15.02;12.15;;;11.10;99.90;;;;;;4898626;29;20203;-96
2021/11/20 11:26:28;;;;;;;14.18;11.73;;;11.10;99.90;;;;;;4900124;29;20255;-96
2021/11/20 11:29:14;;;;;;;20.77;12.77;;;11.20;99.90;;;;;;4898254;29;20223;-96
2021/11/20 11:31:49;;;;;;;14.50;11.90;;;11.20;99.90;;;;;;4901394;29;20180;-96
2021/11/20 11:34:44;;;;;;;14.55;12.27;;;11.20;99.90;;;;;;4886930;29;20179;-96
2021/11/20 11:37:40;;;;;;;13.85;11.70;;;11.20;99.90;;;;;;4927346;29;20293;-96
2021/11/20 11:46:13;;;;;;;13.50;11.32;;;11.20;99.90;;;;;;4977401;28;20229;-95
2021/11/20 11:48:54;;;;;;;14.55;10.93;;;11.30;99.90;;;;;;4949796;29;20189;-94
2021/11/20 11:51:57;;;;;;;13.77;11.10;;;11.30;99.90;;;;;;4945411;29;20182;-94
2021/11/20 11:55:01;;;;;;;12.48;10.57;;;11.30;99.90;;;;;;4969603;28;20276;-96
2021/11/20 11:58:09;;;;;;;12.35;10.77;;;11.30;99.90;;;;;;4960151;23;20236;-96
2021/11/20 12:01:12;;;;;;;14.68;11.35;;;11.30;99.90;;;;;;4990185;28;20219;-96
2021/11/20 12:04:18;;;;;;;13.90;11.20;;;11.30;99.90;;;;;;5008555;23;20233;-96
2021/11/20 12:06:52;;;;;;;12.48;11.15;;;11.40;99.90;;;;;;4963045;29;20190;-96
2021/11/20 12:09:45;;;;;;;14.23;11.20;;;11.40;99.90;;;;;;4999658;23;20255;-96
2021/11/20 12:12:56;;;;;;;11.98;10.57;;;11.40;99.90;;;;;;4976697;28;20241;-96
2021/11/20 12:16:00;;;;;;;11.95;10.18;;;11.50;99.90;;;;;;4963490;28;20236;-96
2021/11/20 12:21:38;;;;;;;13.68;9.80;;;11.40;99.90;;;;;;5037737;23;20241;-96
2021/11/20 12:39:02;;;;;;;11.52;8.88;;;11.30;99.90;;;;;;5139600;23;20299;-96
2021/11/20 12:42:13;;;;;;;11.48;8.45;;;11.30;99.90;;;;;;4900078;29;20227;-96
2021/11/20 12:45:23;;;;;;;11.25;9.07;;;11.30;99.90;;;;;;5044431;23;20217;-96
2021/11/20 13:01:16;;;;;;;14.70;10.25;;;11.20;99.90;;;;;;4968793;28;20236;-95
2021/11/20 13:04:19;;;;;;;15.50;11.07;;;11.20;99.90;;;;;;4954645;29;20224;-96
2021/11/20 13:17:41;;;;;;;15.40;10.57;;;11.10;99.90;;;;;;4969631;28;20255;-96
2021/11/20 13:20:41;;;;;;;11.05;9.20;;;11.00;99.90;;;;;;5050994;23;20244;-95
2021/11/20 13:45:38;;;;;;;11.68;8.30;;;10.90;99.90;;;;;;5651506;23;20196;-97
2021/11/20 13:48:48;;;;;;;10.30;7.28;;;10.90;99.90;;;;;;4937103;29;20713;-96
2021/11/20 14:04:53;;;;;;;16.60;11.70;;;10.90;99.90;;;;;;5109505;23;20245;-96
2021/11/20 14:08:17;;;;;;;17.90;12.80;;;10.90;99.90;;;;;;4955815;29;20193;-96
2021/11/20 14:11:21;;;;;;;20.42;13.75;;;10.90;99.90;;;;;;4963992;28;20192;-96
2021/11/20 14:14:17;;;;;;;22.05;14.02;;;10.90;99.90;;;;;;4935530;29;20194;-96
2021/11/20 14:16:51;;;;;;;22.58;14.25;;;10.90;99.90;;;;;;4951279;28;20205;-95
2021/11/20 14:19:53;;;;;;;20.83;14.43;;;10.80;99.90;;;;;;4955554;28;20286;-96
2021/11/20 14:22:47;;;;;;;25.88;16.13;;;10.80;99.90;;;;;;5216422;23;20241;-96
2021/11/20 14:25:28;;;;;;;23.30;15.50;;;10.70;99.90;;;;;;4960412;29;20184;-95
2021/11/20 14:28:05;;;;;;;21.90;15.18;;;10.70;99.90;;;;;;4972397;23;20246;-95
2021/11/20 14:30:46;;;;;;;21.90;14.95;;;10.70;99.90;;;;;;5016348;23;20236;-96
2021/11/20 14:33:28;;;;;;;22.00;15.65;;;10.60;99.90;;;;;;4962174;29;20197;-96
2021/11/20 14:36:11;;;;;;;24.85;15.68;;;10.60;99.90;;;;;;4945601;29;20623;-96
2021/11/20 14:39:22;;;;;;;26.63;16.77;;;10.50;99.90;;;;;;4969975;28;20193;-96
2021/11/20 14:42:04;;;;;;;28.02;18.33;;;10.50;99.90;;;;;;4957727;29;20201;-96
2021/11/20 14:45:00;;;;;;;28.73;19.80;;;10.50;99.90;;;;;;4955125;29;20244;-96
2021/11/20 14:47:59;;;;;;;43.30;22.00;;;10.50;99.90;;;;;;4969842;29;20189;-96
2021/11/20 14:53:25;;;;;;;38.03;25.27;;;10.40;99.90;;;;;;4968947;28;20232;-96
2021/11/20 14:56:28;;;;;;;38.33;24.98;;;10.40;99.90;;;;;;4948651;29;20300;-95
2021/11/20 14:59:24;;;;;;;39.45;25.23;;;10.40;99.90;;;;;;4940736;29;20526;-96
2021/11/20 15:02:02;;;;;;;39.67;25.08;;;10.40;99.90;;;;;;4936954;29;20263;-96
2021/11/20 15:04:29;;;;;;;41.05;24.98;;;10.30;99.90;;;;;;4964426;29;20576;-96
2021/11/20 15:07:13;;;;;;;35.53;23.80;;;10.30;99.90;;;;;;4950077;28;20263;-96
2021/11/20 15:09:44;;;;;;;35.97;24.25;;;10.40;99.90;;;;;;4963824;29;20177;-96
2021/11/20 15:12:34;;;;;;;35.10;23.05;;;10.40;99.90;;;;;;4945827;29;20276;-96
2021/11/20 15:15:06;;;;;;;39.13;23.65;;;10.30;99.90;;;;;;4963553;28;20538;-96
2021/11/20 15:17:36;;;;;;;38.80;23.50;;;10.30;99.90;;;;;;4964744;29;20221;-96